Time;durP1;ratioP1;P1;durP2;ratioP2;P2;SDS_P1;SDS_P2;PMS_P1;PMS_P2;Temp;Humidity;BMP_temperature;BMP_pressure;BME280_temperature;BME280_humidity;BME280_pressure;Samples;Min_cycle;Max_cycle;Signal;HPM_P1;HPM_P2
2022/04/20 00:01:44;;;;;;;0.80;0.80;;;;;;;10.48;46.07;98284.16;4087409;29;20270;-54
2022/04/20 00:03:45;;;;;;;0.80;0.80;;;;;;;10.33;46.03;98288.63;4087722;28;20287;-54
2022/04/20 00:05:47;;;;;;;0.85;0.85;;;;;;;10.28;46.15;98277.63;4088436;29;20551;-54
2022/04/20 00:07:49;;;;;;;0.93;0.93;;;;;;;10.31;45.87;98277.94;4118318;28;20213;-54
2022/04/20 00:09:51;;;;;;;0.85;0.85;;;;;;;10.33;46.12;98274.94;4091535;29;20263;-54
2022/04/20 00:11:52;;;;;;;0.82;0.80;;;;;;;10.15;46.51;98273.34;4099093;28;20227;-54
2022/04/20 00:13:55;;;;;;;0.85;0.77;;;;;;;10.20;46.28;98278.03;4101213;28;20239;-54
2022/04/20 00:15:57;;;;;;;0.93;0.93;;;;;;;9.98;46.92;98260.78;4090914;28;20223;-55
2022/04/20 00:17:59;;;;;;;1.02;0.80;;;;;;;9.89;47.35;98267.75;4104330;28;20869;-55
2022/04/20 00:20:01;;;;;;;0.90;0.90;;;;;;;9.88;47.37;98274.31;4089367;28;20248;-55
2022/04/20 00:22:03;;;;;;;1.17;1.08;;;;;;;9.54;47.95;98267.25;4089581;29;20685;-55
2022/04/20 00:24:05;;;;;;;1.35;1.25;;;;;;;9.53;48.04;98268.28;4103290;28;20239;-54
2022/04/20 00:26:07;;;;;;;1.00;1.00;;;;;;;9.32;48.78;98269.88;4090135;29;20282;-55
2022/04/20 00:28:08;;;;;;;1.02;1.00;;;;;;;9.41;48.24;98262.13;4090481;28;20290;-54
2022/04/20 00:30:12;;;;;;;1.10;1.02;;;;;;;9.15;49.38;98266.31;4121173;28;20272;-55
2022/04/20 00:32:14;;;;;;;0.90;0.90;;;;;;;9.14;48.84;98263.84;4093156;29;20207;-54
2022/04/20 00:34:16;;;;;;;1.92;1.23;;;;;;;9.00;49.82;98266.06;4088489;29;20212;-56
2022/04/20 00:36:18;;;;;;;1.25;1.25;;;;;;;9.23;48.83;98270.53;4091881;29;20216;-56
2022/04/20 00:38:20;;;;;;;1.70;1.52;;;;;;;9.22;49.14;98263.44;4079259;29;20671;-55
2022/04/20 00:40:21;;;;;;;1.20;1.20;;;;;;;9.32;48.41;98272.63;4088600;28;20227;-54
2022/04/20 00:42:23;;;;;;;1.17;1.10;;;;;;;9.39;48.50;98277.91;4087681;28;20582;-54
2022/04/20 00:44:25;;;;;;;1.13;1.13;;;;;;;9.48;48.50;98265.50;4091560;28;20223;-55
2022/04/20 00:46:28;;;;;;;1.00;1.00;;;;;;;9.50;48.33;98271.53;4103139;28;20211;-55
2022/04/20 00:48:32;;;;;;;1.40;1.10;;;;;;;9.54;48.09;98269.97;4089023;29;20250;-55
2022/04/20 00:50:34;;;;;;;1.23;1.10;;;;;;;9.54;48.31;98269.97;4103399;28;20219;-55
2022/04/20 00:52:36;;;;;;;0.98;0.98;;;;;;;9.50;48.28;98268.81;4106285;28;20306;-54
2022/04/20 00:54:58;;;;;;;1.67;1.10;;;;;;;9.48;48.57;98271.78;4088197;29;20228;-55
2022/04/20 00:57:00;;;;;;;1.13;1.13;;;;;;;9.48;48.19;98269.03;4089154;28;20208;-54
2022/04/20 00:59:02;;;;;;;9.23;0.98;;;;;;;9.44;48.53;98269.78;4090548;29;20235;-55
2022/04/20 01:01:04;;;;;;;1.02;1.02;;;;;;;9.41;48.50;98275.78;4086850;28;20238;-54
2022/04/20 01:03:09;;;;;;;1.10;1.00;;;;;;;9.40;48.92;98279.56;4083027;29;20801;-54
2022/04/20 01:05:11;;;;;;;1.10;1.10;;;;;;;9.38;48.68;98276.25;4089476;28;20373;-55
2022/04/20 01:07:14;;;;;;;1.05;0.93;;;;;;;9.36;48.90;98281.13;4105725;28;20209;-55
2022/04/20 01:09:16;;;;;;;0.80;0.80;;;;;;;9.34;48.54;98275.09;4107527;28;20206;-55
2022/04/20 01:11:17;;;;;;;1.20;1.20;;;;;;;9.31;49.36;98275.59;4121881;28;20265;-56
2022/04/20 01:13:19;;;;;;;0.80;0.80;;;;;;;9.27;49.31;98271.69;4097461;29;20207;-55
2022/04/20 01:15:21;;;;;;;0.73;0.73;;;;;;;9.22;49.53;98266.97;4103578;28;20242;-55
2022/04/20 01:17:23;;;;;;;1.25;1.20;;;;;;;9.20;49.22;98271.88;4080524;29;20208;-55
2022/04/20 01:19:34;;;;;;;1.13;1.13;;;;;;;8.86;49.34;98267.44;4105663;28;20218;-55
2022/04/20 01:21:36;;;;;;;0.95;0.95;;;;;;;9.04;49.40;98269.97;4109999;28;20707;-55
2022/04/20 01:23:38;;;;;;;0.98;0.90;;;;;;;9.16;48.81;98267.16;4098125;28;20554;-55
2022/04/20 01:25:40;;;;;;;1.15;1.13;;;;;;;9.03;49.07;98272.94;4099843;28;20285;-55
2022/04/20 01:27:42;;;;;;;1.35;1.25;;;;;;;9.05;49.13;98276.22;4091551;28;20211;-55
2022/04/20 01:29:48;;;;;;;1.52;1.27;;;;;;;9.01;48.59;98269.63;4123563;28;20854;-55
2022/04/20 01:31:49;;;;;;;1.02;1.02;;;;;;;9.03;48.90;98272.94;4105448;28;20214;-54
2022/04/20 01:33:51;;;;;;;1.20;1.20;;;;;;;8.93;48.77;98270.00;4093155;29;20299;-55
2022/04/20 01:35:53;;;;;;;1.13;1.02;;;;;;;8.96;48.71;98266.78;4119841;28;20227;-56
2022/04/20 01:37:55;;;;;;;1.65;1.55;;;;;;;8.77;49.30;98274.38;4093390;28;20212;-55
2022/04/20 01:39:56;;;;;;;0.82;0.82;;;;;;;8.64;49.91;98268.38;4106733;28;20253;-54
2022/04/20 01:41:58;;;;;;;0.80;0.80;;;;;;;8.49;49.65;98265.38;4120837;28;20198;-55
2022/04/20 01:43:59;;;;;;;1.40;1.30;;;;;;;8.61;49.68;98268.88;4090954;29;20204;-55
2022/04/20 01:46:01;;;;;;;0.85;0.85;;;;;;;8.55;49.18;98264.38;4091648;29;20231;-56
2022/04/20 01:48:03;;;;;;;1.52;1.50;;;;;;;8.36;49.67;98265.63;4089669;29;20223;-55
2022/04/20 01:50:06;;;;;;;1.00;1.00;;;;;;;8.30;49.91;98261.16;4090558;28;20270;-55
2022/04/20 01:52:08;;;;;;;1.00;1.00;;;;;;;8.20;49.88;98258.22;4091122;28;20801;-55
2022/04/20 01:54:10;;;;;;;1.85;1.75;;;;;;;8.24;49.92;98253.94;4090401;29;20207;-56
2022/04/20 01:56:12;;;;;;;1.23;1.20;;;;;;;8.24;50.05;98245.75;4078030;29;20227;-55
2022/04/20 01:58:13;;;;;;;0.90;0.90;;;;;;;8.18;50.56;98254.88;4072845;29;20212;-55
2022/04/20 02:00:18;;;;;;;1.05;0.98;;;;;;;8.17;50.04;98256.78;4106944;28;20261;-55
2022/04/20 02:02:34;;;;;;;1.25;1.23;;;;;;;8.25;50.12;98258.31;4103828;28;20206;-55
2022/04/20 02:04:37;;;;;;;1.17;1.08;;;;;;;8.34;50.14;98267.78;4090984;29;20223;-56
2022/04/20 02:06:38;;;;;;;0.98;0.98;;;;;;;8.41;50.24;98263.84;4089420;29;20274;-54
2022/04/20 02:08:41;;;;;;;1.45;1.35;;;;;;;8.44;49.68;98268.81;4103109;28;20208;-56
2022/04/20 02:10:42;;;;;;;0.90;0.90;;;;;;;8.45;49.98;98269.63;4095825;28;20235;-54
2022/04/20 02:12:44;;;;;;;1.92;1.30;;;;;;;8.52;49.89;98275.78;4090159;28;20219;-55
2022/04/20 02:14:47;;;;;;;1.67;1.33;;;;;;;8.46;49.67;98271.28;4105309;28;20234;-55
2022/04/20 02:16:48;;;;;;;1.58;1.48;;;;;;;8.36;50.10;98265.63;4103478;28;21215;-54
2022/04/20 02:18:50;;;;;;;1.85;1.75;;;;;;;8.03;50.65;98265.47;4093373;28;20250;-56
2022/04/20 02:20:52;;;;;;;1.58;1.48;;;;;;;7.85;50.72;98262.88;4089140;28;20297;-55
2022/04/20 02:22:54;;;;;;;1.60;1.50;;;;;;;7.74;50.39;98263.72;4087469;28;20212;-54
2022/04/20 02:24:56;;;;;;;0.85;0.85;;;;;;;7.78;50.44;98273.06;4087619;29;20294;-54
2022/04/20 02:26:57;;;;;;;1.35;1.35;;;;;;;7.54;50.98;98271.41;4104031;28;20218;-54
2022/04/20 02:28:59;;;;;;;1.30;1.20;;;;;;;7.71;50.61;98266.91;4117962;28;20324;-54
2022/04/20 02:31:01;;;;;;;0.95;0.95;;;;;;;7.85;50.73;98276.50;4091868;28;20451;-54
2022/04/20 02:33:03;;;;;;;1.20;1.10;;;;;;;7.84;50.25;98272.13;4091839;28;20203;-56
2022/04/20 02:35:04;;;;;;;1.30;1.20;;;;;;;7.93;50.05;98274.25;4104340;28;20230;-56
2022/04/20 02:37:06;;;;;;;1.65;1.40;;;;;;;7.97;50.27;98274.59;4087421;28;20716;-55
2022/04/20 02:39:08;;;;;;;1.42;1.33;;;;;;;7.97;49.89;98267.25;4089614;28;20227;-54
2022/04/20 02:41:10;;;;;;;1.77;1.67;;;;;;;7.99;50.09;98269.72;4105328;28;20619;-55
2022/04/20 02:43:11;;;;;;;1.60;1.30;;;;;;;8.11;49.88;98267.81;4121316;28;20224;-56
2022/04/20 02:45:13;;;;;;;2.60;1.75;;;;;;;8.06;50.05;98267.69;4106256;28;20230;-55
2022/04/20 02:47:17;;;;;;;1.95;1.58;;;;;;;8.08;50.39;98268.31;4087089;28;20208;-56
2022/04/20 02:49:20;;;;;;;1.40;1.30;;;;;;;8.08;50.39;98279.19;4093393;29;20324;-54
2022/04/20 02:51:22;;;;;;;1.10;1.10;;;;;;;8.10;50.16;98277.06;4090271;28;20274;-55
2022/04/20 02:53:24;;;;;;;0.98;0.98;;;;;;;8.11;50.32;98275.97;4119157;28;20207;-55
2022/04/20 02:55:25;;;;;;;1.20;1.10;;;;;;;8.06;50.07;98281.31;4087532;28;20315;-55
2022/04/20 02:57:27;;;;;;;1.25;1.15;;;;;;;8.13;50.13;98280.13;4092230;29;20211;-54
2022/04/20 02:59:29;;;;;;;1.17;1.17;;;;;;;8.10;48.99;98283.31;4118488;28;20209;-55
2022/04/20 03:01:30;;;;;;;5.75;1.20;;;;;;;8.00;49.26;98285.00;4091500;28;20207;-54
2022/04/20 03:03:33;;;;;;;1.20;1.10;;;;;;;7.98;49.58;98278.97;4086697;29;20216;-55
2022/04/20 03:05:35;;;;;;;1.50;1.40;;;;;;;8.01;49.32;98278.50;4087057;28;20721;-56
2022/04/20 03:07:37;;;;;;;1.25;1.25;;;;;;;7.92;49.39;98277.19;4115570;28;20203;-55
2022/04/20 03:09:38;;;;;;;1.25;1.25;;;;;;;7.82;49.80;98285.97;4090909;28;20218;-56
2022/04/20 03:11:40;;;;;;;1.65;1.55;;;;;;;7.87;49.47;98282.53;4087129;29;20224;-55
2022/04/20 03:13:42;;;;;;;0.98;0.90;;;;;;;7.89;50.16;98280.41;4106282;28;20211;-56
2022/04/20 03:15:47;;;;;;;1.20;0.90;;;;;;;7.90;50.33;98282.06;4086556;29;20286;-55
2022/04/20 03:17:52;;;;;;;1.38;1.27;;;;;;;7.66;50.15;98285.84;4085895;28;20216;-54
2022/04/20 03:19:53;;;;;;;1.00;1.00;;;;;;;7.71;50.23;98278.66;4088564;29;20212;-56
2022/04/20 03:21:55;;;;;;;1.00;1.00;;;;;;;7.63;50.33;98286.34;4086566;28;20219;-55
2022/04/20 03:23:57;;;;;;;1.08;1.08;;;;;;;7.50;50.20;98283.84;4088248;29;20212;-55
2022/04/20 03:25:59;;;;;;;1.02;0.93;;;;;;;7.60;50.19;98286.81;4085149;28;20232;-56
2022/04/20 03:28:00;;;;;;;1.60;1.50;;;;;;;7.64;50.30;98283.38;4100618;28;20211;-55
2022/04/20 03:30:02;;;;;;;0.95;0.95;;;;;;;7.59;50.03;98282.44;4086600;28;20207;-56
2022/04/20 03:32:12;;;;;;;1.08;0.98;;;;;;;7.47;50.76;98281.59;4100559;28;20219;-55
2022/04/20 03:34:14;;;;;;;0.90;0.90;;;;;;;7.29;50.97;98295.31;4088021;28;20258;-56
2022/04/20 03:36:16;;;;;;;1.67;0.82;;;;;;;7.33;50.79;98291.03;4102394;28;20605;-55
2022/04/20 03:38:18;;;;;;;1.20;1.20;;;;;;;7.22;51.40;98291.88;4100893;28;20336;-55
2022/04/20 03:40:19;;;;;;;1.30;1.20;;;;;;;7.04;51.59;98298.22;4100926;28;21680;-54
2022/04/20 03:42:21;;;;;;;1.08;1.05;;;;;;;7.06;51.59;98295.25;4089190;28;20828;-56
2022/04/20 03:44:23;;;;;;;0.90;0.90;;;;;;;6.85;52.32;98293.91;4089218;29;20889;-54
2022/04/20 03:46:25;;;;;;;1.10;1.10;;;;;;;6.86;51.91;98294.72;4100354;28;20370;-55
2022/04/20 03:48:27;;;;;;;1.05;1.05;;;;;;;7.06;52.05;98289.81;4087824;28;20211;-55
2022/04/20 03:50:29;;;;;;;1.10;1.10;;;;;;;7.09;51.99;98294.81;4092832;28;20253;-55
2022/04/20 03:52:31;;;;;;;1.02;1.02;;;;;;;7.14;51.87;98297.63;4090901;29;20227;-56
2022/04/20 03:54:34;;;;;;;1.30;1.30;;;;;;;7.16;51.60;98295.53;4097366;29;20207;-56
2022/04/20 03:58:56;;;;;;;1.20;1.20;;;;;;;7.10;51.65;98304.63;4092135;28;20259;-56
2022/04/20 04:00:58;;;;;;;1.50;1.42;;;;;;;7.20;51.31;98305.72;4094698;28;20262;-56
2022/04/20 04:03:00;;;;;;;1.35;0.95;;;;;;;7.07;52.00;98296.91;4088745;28;20610;-56
2022/04/20 04:05:02;;;;;;;1.13;1.10;;;;;;;6.78;52.39;98303.22;4120796;28;20218;-56
2022/04/20 04:07:04;;;;;;;2.35;1.05;;;;;;;6.90;52.29;98301.38;4104533;28;20210;-56
2022/04/20 04:09:06;;;;;;;1.00;1.00;;;;;;;6.81;52.51;98294.59;4103458;28;20783;-56
2022/04/20 04:11:07;;;;;;;1.48;1.38;;;;;;;6.84;52.41;98303.16;4122558;28;20217;-56
2022/04/20 04:13:09;;;;;;;1.25;1.15;;;;;;;6.85;52.04;98301.25;4089820;28;20228;-56
2022/04/20 04:15:11;;;;;;;1.63;1.52;;;;;;;6.71;52.74;98303.34;4092179;28;20317;-56
2022/04/20 04:17:13;;;;;;;0.82;0.82;;;;;;;6.54;52.66;98304.19;4090790;29;20232;-56
2022/04/20 04:19:15;;;;;;;2.45;1.65;;;;;;;6.63;52.51;98305.53;4089913;29;20200;-56
2022/04/20 04:21:17;;;;;;;2.30;1.50;;;;;;;6.66;52.99;98314.06;4105634;28;20281;-55
2022/04/20 04:23:18;;;;;;;0.93;0.93;;;;;;;6.67;52.79;98317.59;4093013;28;20346;-55
2022/04/20 04:25:20;;;;;;;1.38;1.30;;;;;;;6.69;52.58;98310.88;4120687;28;20230;-55
2022/04/20 04:27:22;;;;;;;1.35;1.30;;;;;;;6.65;52.96;98303.41;4105688;28;20211;-56
2022/04/20 04:29:24;;;;;;;0.98;0.82;;;;;;;6.64;52.82;98307.19;4089711;28;20215;-55
2022/04/20 04:31:27;;;;;;;1.35;1.30;;;;;;;6.63;52.88;98305.53;4119687;28;20276;-56
2022/04/20 04:33:28;;;;;;;1.30;1.30;;;;;;;6.75;52.67;98309.13;4095261;28;20215;-55
2022/04/20 04:35:31;;;;;;;1.70;1.08;;;;;;;6.73;52.60;98311.25;4103026;28;20241;-56
2022/04/20 04:37:34;;;;;;;1.20;1.20;;;;;;;6.73;52.54;98306.66;4077937;29;20228;-56
2022/04/20 04:39:36;;;;;;;1.35;1.13;;;;;;;6.55;53.11;98303.97;4103009;28;20283;-56
2022/04/20 04:41:37;;;;;;;1.25;1.10;;;;;;;6.57;52.86;98306.47;4103650;28;20276;-56
2022/04/20 04:43:39;;;;;;;1.40;1.30;;;;;;;6.27;53.75;98306.44;4103272;28;20207;-55
2022/04/20 04:50:21;;;;;;;1.05;1.02;;;;;;;6.49;53.45;98315.75;4087744;29;21886;-55
2022/04/20 04:52:23;;;;;;;1.30;1.20;;;;;;;6.64;53.16;98318.06;4093978;29;20291;-55
2022/04/20 04:54:25;;;;;;;1.13;1.10;;;;;;;6.80;52.92;98311.97;4089463;28;20219;-55
2022/04/20 04:56:27;;;;;;;1.20;1.13;;;;;;;6.87;52.79;98312.69;4089991;29;20216;-56
2022/04/20 04:58:29;;;;;;;1.77;1.52;;;;;;;6.73;52.68;98319.41;4102946;28;20211;-56
2022/04/20 05:00:30;;;;;;;1.25;0.93;;;;;;;6.84;52.54;98330.34;4104337;28;20207;-56
2022/04/20 05:02:32;;;;;;;1.30;1.20;;;;;;;6.82;52.96;98323.47;4086910;28;20208;-56
2022/04/20 05:04:35;;;;;;;1.92;1.45;;;;;;;6.88;52.23;98328.00;4104303;28;20203;-56
2022/04/20 05:06:37;;;;;;;1.27;1.27;;;;;;;6.75;52.78;98330.88;4090948;29;20276;-55
2022/04/20 05:08:39;;;;;;;1.92;0.98;;;;;;;6.86;52.93;98325.50;4103182;28;20211;-55
2022/04/20 05:10:41;;;;;;;1.10;1.10;;;;;;;6.92;52.49;98332.72;4090706;29;20244;-56
2022/04/20 05:12:42;;;;;;;1.15;1.15;;;;;;;6.75;52.94;98334.41;4104240;28;20224;-56
2022/04/20 05:14:44;;;;;;;0.90;0.90;;;;;;;6.81;53.12;98333.50;4076625;29;20260;-55
2022/04/20 05:16:46;;;;;;;4.55;1.20;;;;;;;6.84;52.55;98332.22;4103460;28;20234;-56
2022/04/20 05:18:47;;;;;;;1.27;1.25;;;;;;;6.85;52.85;98336.59;4090802;29;20207;-56
2022/04/20 05:20:49;;;;;;;1.70;1.60;;;;;;;6.90;52.71;98339.44;4093932;28;20222;-56
2022/04/20 05:22:51;;;;;;;1.90;1.80;;;;;;;6.65;53.47;98333.31;4085415;29;20776;-56
2022/04/20 05:24:52;;;;;;;4.82;1.73;;;;;;;6.72;53.09;98334.06;4092374;28;20773;-57
2022/04/20 05:26:54;;;;;;;1.83;1.73;;;;;;;6.77;53.02;98339.63;4094415;29;20740;-56
2022/04/20 05:28:56;;;;;;;1.10;1.10;;;;;;;6.92;52.72;98331.88;4103383;28;20231;-56
2022/04/20 05:30:58;;;;;;;1.30;1.30;;;;;;;7.08;52.42;98337.50;4095050;28;20270;-55
2022/04/20 05:33:00;;;;;;;2.95;1.85;;;;;;;7.33;52.60;98330.00;4118704;28;20755;-56
2022/04/20 05:35:02;;;;;;;0.90;0.90;;;;;;;7.45;52.11;98327.28;4087754;29;20311;-56
2022/04/20 05:41:44;;;;;;;2.45;1.70;;;;;;;7.51;52.55;98329.06;4092791;28;20214;-55
2022/04/20 05:43:46;;;;;;;0.70;0.70;;;;;;;7.58;51.50;98332.50;4102873;28;20784;-56
2022/04/20 05:45:54;;;;;;;1.23;1.20;;;;;;;7.80;51.86;98325.41;4088333;28;20236;-56
2022/04/20 05:47:59;;;;;;;1.33;1.23;;;;;;;8.01;51.69;98327.53;4102753;28;20235;-55
2022/04/20 05:50:00;;;;;;;1.33;1.30;;;;;;;8.03;51.03;98328.13;4088203;29;20267;-54
2022/04/20 05:52:02;;;;;;;1.10;1.08;;;;;;;8.13;50.95;98331.91;4104996;28;20706;-55
2022/04/20 05:54:04;;;;;;;1.50;1.13;;;;;;;8.22;51.31;98324.22;4088696;28;20251;-55
2022/04/20 05:56:06;;;;;;;0.70;0.70;;;;;;;8.42;50.58;98327.38;4117872;28;20229;-56
2022/04/20 05:58:07;;;;;;;1.23;1.15;;;;;;;8.36;50.52;98325.63;4090522;29;20203;-55
2022/04/20 06:00:09;;;;;;;1.52;1.42;;;;;;;8.53;50.79;98331.97;4102993;28;20254;-57
2022/04/20 06:02:11;;;;;;;1.65;1.50;;;;;;;8.59;49.86;98325.53;4091814;28;20219;-56
2022/04/20 06:04:13;;;;;;;1.27;1.23;;;;;;;8.60;50.13;98328.03;4086440;28;20235;-55
2022/04/20 06:06:15;;;;;;;1.15;1.10;;;;;;;8.46;49.43;98326.66;4086549;28;20291;-56
2022/04/20 06:08:16;;;;;;;1.40;1.25;;;;;;;8.30;50.09;98332.03;4091769;28;20255;-56
2022/04/20 06:10:18;;;;;;;1.58;1.48;;;;;;;8.60;50.40;98324.47;4090294;28;20215;-55
2022/04/20 06:12:20;;;;;;;1.70;1.60;;;;;;;8.50;50.42;98321.53;4118187;28;20241;-54
2022/04/20 06:14:22;;;;;;;2.10;2.00;;;;;;;8.54;50.02;98328.19;4085107;28;20254;-55
2022/04/20 06:16:24;;;;;;;1.33;1.23;;;;;;;8.63;50.09;98321.28;4102198;28;20210;-55
2022/04/20 06:18:26;;;;;;;1.10;1.10;;;;;;;8.75;49.98;98322.06;4089281;28;20604;-56
2022/04/20 06:20:28;;;;;;;1.52;1.33;;;;;;;8.83;49.47;98324.41;4087615;28;21204;-56
2022/04/20 06:22:30;;;;;;;1.35;1.25;;;;;;;8.77;50.29;98328.94;4118341;28;20229;-56
2022/04/20 06:24:32;;;;;;;1.10;1.10;;;;;;;8.77;49.76;98328.94;4101246;28;20250;-55
2022/04/20 06:26:33;;;;;;;1.52;1.42;;;;;;;8.82;50.67;98330.94;4119880;28;20297;-55
2022/04/20 06:28:35;;;;;;;2.10;1.10;;;;;;;9.10;50.11;98322.72;4093768;28;20208;-55
2022/04/20 06:30:37;;;;;;;2.13;1.38;;;;;;;9.22;49.01;98328.94;4093446;28;20215;-55
2022/04/20 06:32:39;;;;;;;2.05;1.05;;;;;;;9.17;49.67;98324.22;4101638;28;20228;-56
2022/04/20 06:34:41;;;;;;;1.50;1.40;;;;;;;9.35;49.31;98328.63;4102609;28;20262;-54
2022/04/20 06:36:42;;;;;;;2.55;1.33;;;;;;;9.55;49.04;98326.25;4118786;28;20222;-56
2022/04/20 06:38:44;;;;;;;1.15;1.10;;;;;;;9.39;49.34;98332.50;4087737;29;20211;-55
2022/04/20 06:40:46;;;;;;;1.73;1.58;;;;;;;9.36;49.42;98327.56;4103758;28;20250;-55
2022/04/20 06:42:48;;;;;;;1.75;1.65;;;;;;;9.59;49.36;98330.13;4091049;29;20203;-55
2022/04/20 06:44:50;;;;;;;2.53;1.88;;;;;;;9.39;48.99;98327.06;4104788;28;20261;-54
2022/04/20 06:46:52;;;;;;;1.45;1.35;;;;;;;9.92;48.80;98327.38;4099139;28;20203;-55
2022/04/20 06:48:54;;;;;;;1.75;1.65;;;;;;;10.17;47.64;98330.50;4103048;28;20215;-55
2022/04/20 06:50:57;;;;;;;1.30;1.20;;;;;;;9.91;47.31;98334.75;4101624;28;20214;-55
2022/04/20 07:00:00;;;;;;;1.00;1.00;;;;;;;10.23;47.50;98327.63;4090895;28;20211;-56
2022/04/20 07:02:07;;;;;;;1.30;1.20;;;;;;;10.25;47.62;98328.19;4087473;29;20232;-56
2022/04/20 07:04:09;;;;;;;1.52;1.42;;;;;;;10.11;47.33;98321.44;4091589;29;20212;-55
2022/04/20 07:06:10;;;;;;;1.25;1.15;;;;;;;10.04;47.55;98314.47;4103195;28;20282;-55
2022/04/20 07:08:12;;;;;;;2.33;2.05;;;;;;;9.94;47.77;98326.06;4090591;29;20597;-56
2022/04/20 07:10:14;;;;;;;1.20;0.90;;;;;;;10.24;47.49;98332.00;4115071;28;20267;-55
2022/04/20 07:12:16;;;;;;;1.63;1.38;;;;;;;10.28;47.34;98327.66;4085512;29;20211;-55
2022/04/20 07:14:17;;;;;;;1.25;1.25;;;;;;;10.40;47.71;98330.28;4086657;29;20326;-55
2022/04/20 07:16:19;;;;;;;1.88;1.77;;;;;;;10.55;47.27;98330.50;4117821;28;20672;-56
2022/04/20 07:18:21;;;;;;;1.83;1.73;;;;;;;10.58;46.95;98328.06;4086618;29;20223;-55
2022/04/20 07:20:22;;;;;;;1.73;1.50;;;;;;;10.92;46.37;98333.13;4085044;29;20199;-55
2022/04/20 07:22:24;;;;;;;1.75;1.65;;;;;;;11.04;46.23;98333.81;4100159;28;20206;-54
2022/04/20 07:24:26;;;;;;;1.45;1.40;;;;;;;11.05;45.97;98332.72;4086194;29;20222;-56
2022/04/20 07:26:27;;;;;;;1.45;1.40;;;;;;;11.12;45.69;98332.53;4086196;28;20235;-56
2022/04/20 07:28:30;;;;;;;1.40;1.38;;;;;;;11.27;46.17;98332.69;4118045;28;20207;-55
2022/04/20 07:30:34;;;;;;;1.38;1.30;;;;;;;11.61;45.83;98334.97;4117348;28;20210;-55
2022/04/20 07:32:35;;;;;;;1.00;1.00;;;;;;;11.81;44.59;98324.16;4089276;29;20645;-55
2022/04/20 07:34:37;;;;;;;1.75;1.65;;;;;;;12.20;44.76;98332.94;4094230;29;20267;-55
2022/04/20 07:36:39;;;;;;;1.17;1.15;;;;;;;12.13;44.28;98322.22;4104147;28;20716;-55
2022/04/20 07:38:41;;;;;;;9.88;2.45;;;;;;;13.01;43.78;98324.84;4121493;28;20226;-54
2022/04/20 07:40:42;;;;;;;3.72;1.20;;;;;;;12.64;43.31;98318.63;4118069;28;20257;-54
2022/04/20 07:42:44;;;;;;;1.45;1.35;;;;;;;12.31;42.94;98329.16;4092756;29;20610;-54
2022/04/20 07:44:46;;;;;;;1.42;1.33;;;;;;;12.66;43.33;98332.94;4088338;28;20239;-54
2022/04/20 07:46:47;;;;;;;1.20;1.15;;;;;;;12.61;42.88;98330.16;4088274;29;20199;-54
2022/04/20 07:48:49;;;;;;;1.23;1.13;;;;;;;12.66;43.21;98332.94;4091806;29;20286;-54
2022/04/20 07:50:51;;;;;;;1.48;1.20;;;;;;;12.69;41.44;98335.13;4105275;28;20246;-55
2022/04/20 07:53:00;;;;;;;1.30;1.30;;;;;;;12.25;43.46;98330.22;4104117;28;20230;-54
2022/04/20 07:55:02;;;;;;;1.15;1.13;;;;;;;12.45;42.34;98336.63;4088940;29;20231;-55
2022/04/20 07:57:04;;;;;;;2.53;1.23;;;;;;;12.23;42.06;98333.22;4088619;29;20214;-54
2022/04/20 07:59:05;;;;;;;1.27;1.17;;;;;;;12.50;42.39;98325.69;4101785;28;20203;-54
2022/04/20 08:01:08;;;;;;;1.90;1.17;;;;;;;12.72;40.48;98331.88;4102750;28;21174;-54
2022/04/20 08:03:17;;;;;;;1.15;1.15;;;;;;;12.38;40.88;98327.00;4115237;28;20229;-54
2022/04/20 08:05:19;;;;;;;1.25;1.05;;;;;;;12.36;39.26;98338.25;4117125;28;20778;-54
2022/04/20 08:07:21;;;;;;;0.90;0.82;;;;;;;12.28;39.33;98333.28;4090596;29;20212;-55
2022/04/20 08:09:23;;;;;;;1.40;1.30;;;;;;;11.92;40.13;98334.09;4099360;28;20217;-54
2022/04/20 08:11:25;;;;;;;1.73;1.00;;;;;;;11.89;40.64;98340.13;4086836;28;20272;-55
2022/04/20 08:15:48;;;;;;;1.23;1.15;;;;;;;12.07;40.33;98328.75;4086511;29;20244;-54
2022/04/20 08:17:49;;;;;;;1.48;1.38;;;;;;;11.87;40.61;98344.22;4089303;29;20633;-54
2022/04/20 08:19:51;;;;;;;1.42;1.15;;;;;;;12.04;39.81;98334.75;4090856;29;20218;-54
2022/04/20 08:21:53;;;;;;;1.27;1.13;;;;;;;12.25;39.27;98325.56;4100370;28;20206;-54
2022/04/20 08:23:54;;;;;;;1.50;1.10;;;;;;;12.28;39.66;98336.00;4089675;29;20203;-54
2022/04/20 08:25:56;;;;;;;1.42;1.33;;;;;;;11.95;39.34;98322.63;4083722;28;20263;-54
2022/04/20 08:27:58;;;;;;;1.73;1.63;;;;;;;12.17;39.65;98323.31;4116390;28;20306;-55
2022/04/20 08:29:59;;;;;;;1.15;1.08;;;;;;;12.27;40.07;98331.63;4085184;29;20259;-55
2022/04/20 08:32:04;;;;;;;1.15;1.13;;;;;;;12.01;40.61;98327.06;4103046;28;20207;-55
2022/04/20 08:34:06;;;;;;;1.17;1.15;;;;;;;12.21;39.90;98329.94;4100956;28;20238;-55
2022/04/20 08:36:11;;;;;;;1.23;1.20;;;;;;;12.29;39.39;98331.34;4101362;28;20613;-55
2022/04/20 08:38:13;;;;;;;0.80;0.80;;;;;;;12.71;39.40;98330.19;4086299;28;20211;-55
2022/04/20 08:40:15;;;;;;;2.10;1.70;;;;;;;12.31;38.54;98329.97;4104643;28;20207;-55
2022/04/20 08:42:19;;;;;;;1.40;1.20;;;;;;;12.26;38.82;98327.22;4117452;28;20246;-55
2022/04/20 08:44:28;;;;;;;1.08;1.08;;;;;;;12.67;39.06;98337.31;4087399;28;20279;-55
2022/04/20 08:46:35;;;;;;;1.65;1.60;;;;;;;12.91;38.94;98338.50;4118517;28;20839;-55
2022/04/20 08:48:38;;;;;;;1.90;1.70;;;;;;;12.84;38.82;98340.66;4102182;28;20215;-54
2022/04/20 08:50:40;;;;;;;1.33;1.23;;;;;;;13.16;38.78;98333.13;4085363;29;20689;-55
2022/04/20 08:52:43;;;;;;;1.10;1.00;;;;;;;13.17;38.64;98334.78;4089211;29;20211;-55
2022/04/20 08:54:45;;;;;;;0.88;0.88;;;;;;;13.43;38.62;98332.91;4093094;28;22328;-53
2022/04/20 08:59:08;;;;;;;1.27;0.90;;;;;;;13.37;38.10;98334.81;4088226;29;20210;-53
2022/04/20 09:01:12;;;;;;;1.27;1.05;;;;;;;13.58;36.92;98335.69;4087791;29;20216;-55
2022/04/20 09:03:15;;;;;;;0.82;0.82;;;;;;;13.44;37.45;98335.38;4105399;28;20204;-55
2022/04/20 09:05:18;;;;;;;1.58;0.80;;;;;;;13.81;36.35;98329.63;4088673;29;20270;-54
2022/04/20 09:07:20;;;;;;;1.23;1.00;;;;;;;13.06;36.76;98330.38;4094931;29;20215;-61
2022/04/20 09:09:29;;;;;;;0.88;0.88;;;;;;;13.32;37.30;98317.50;4101906;28;20214;-54
2022/04/20 09:11:31;;;;;;;0.98;0.98;;;;;;;13.04;36.42;98324.28;4105487;28;20875;-55
2022/04/20 09:13:35;;;;;;;0.80;0.80;;;;;;;13.02;36.22;98333.91;4089375;29;20231;-55
2022/04/20 09:15:39;;;;;;;0.65;0.65;;;;;;;13.13;35.78;98333.69;4087342;28;20377;-52
2022/04/20 09:17:45;;;;;;;1.08;1.02;;;;;;;13.36;36.20;98335.91;4122418;28;20214;-55
2022/04/20 09:19:51;;;;;;;0.93;0.93;;;;;;;13.03;35.73;98336.38;4088668;29;20278;-55
2022/04/20 09:21:55;;;;;;;0.88;0.88;;;;;;;13.57;35.57;98332.09;4089324;28;20303;-54
2022/04/20 09:24:07;;;;;;;1.58;1.35;;;;;;;13.83;34.95;98343.94;4104808;28;20195;-56
2022/04/20 09:26:15;;;;;;;1.15;0.90;;;;;;;13.83;35.59;98331.00;4105776;28;20230;-54
2022/04/20 09:28:17;;;;;;;1.38;1.38;;;;;;;14.01;35.91;98326.88;4089459;29;20211;-54
2022/04/20 09:30:19;;;;;;;0.98;0.88;;;;;;;14.40;34.91;98322.44;4103610;28;20289;-52
2022/04/20 09:32:36;;;;;;;0.68;0.68;;;;;;;14.08;35.54;98319.16;4119700;28;20237;-55
2022/04/20 09:34:53;;;;;;;2.35;1.25;;;;;;;14.33;35.11;98317.22;4121275;28;20233;-53
2022/04/20 09:36:57;;;;;;;1.33;1.20;;;;;;;14.17;35.57;98323.81;4090093;29;20901;-53
2022/04/20 09:39:03;;;;;;;1.10;1.10;;;;;;;14.28;34.16;98320.00;4097476;29;20235;-53
2022/04/20 09:41:09;;;;;;;0.70;0.70;;;;;;;14.73;34.42;98316.28;4090319;29;20266;-53
2022/04/20 09:43:19;;;;;;;1.00;1.00;;;;;;;14.46;35.06;98316.66;4105560;28;20661;-53
2022/04/20 09:45:21;;;;;;;0.88;0.88;;;;;;;14.16;33.87;98316.66;4088502;29;20242;-54
2022/04/20 09:50:02;;;;;;;1.00;1.00;;;;;;;14.42;34.42;98320.25;4083591;29;20206;-54
2022/04/20 09:52:13;;;;;;;0.90;0.90;;;;;;;14.47;34.18;98310.03;4086289;28;20248;-55
2022/04/20 09:54:26;;;;;;;0.90;0.90;;;;;;;15.00;35.02;98314.78;4087503;29;20294;-54
2022/04/20 09:56:28;;;;;;;0.98;0.98;;;;;;;14.63;34.20;98311.63;4088424;29;20597;-54
2022/04/20 09:58:34;;;;;;;2.88;1.10;;;;;;;14.97;34.62;98318.09;4117279;28;20244;-54
2022/04/20 10:00:40;;;;;;;1.00;0.90;;;;;;;14.67;35.32;98315.47;4099689;28;20215;-53
2022/04/20 10:02:52;;;;;;;1.30;1.20;;;;;;;14.49;33.97;98313.31;4098828;28;20730;-53
2022/04/20 10:04:55;;;;;;;0.70;0.70;;;;;;;14.91;34.27;98313.69;4087255;28;20227;-54
2022/04/20 10:06:56;;;;;;;0.70;0.70;;;;;;;15.39;34.54;98303.81;4103431;28;20203;-53
2022/04/20 10:08:59;;;;;;;1.65;1.08;;;;;;;15.26;33.51;98316.28;4090591;29;20222;-53